Time;durP1;ratioP1;P1;durP2;ratioP2;P2;SDS_P1;SDS_P2;PMS_P1;PMS_P2;Temp;Humidity;BMP_temperature;BMP_pressure;BME280_temperature;BME280_humidity;BME280_pressure;Samples;Min_cycle;Max_cycle;Signal;HPM_P1;HPM_P2
2023/05/03 00:02:09;;;;;;;;;;;;;;;;;;5086800;27;42842;-81
2023/05/03 00:04:36;;;;;;;;;;;20.00;59.60;;;;;;5087431;27;43413;-80
2023/05/03 00:07:02;;;;;;;;;;;;;;;;;;5087437;27;42842;-81
2023/05/03 00:09:28;;;;;;;;;;;;;;;;;;5085926;27;44566;-79
2023/05/03 00:11:54;;;;;;;;;;;;;;;;;;5072135;28;42933;-79
2023/05/03 00:14:20;;;;;;;;;;;;;;;;;;5085524;28;43437;-79
2023/05/03 00:16:45;;;;;;;;;;;20.30;59.80;;;;;;5086199;28;42989;-79
2023/05/03 00:19:11;;;;;;;;;;;20.00;59.80;;;;;;5085473;28;43414;-79
2023/05/03 00:21:37;;;;;;;;;;;20.00;59.20;;;;;;5084520;27;42972;-79
2023/05/03 00:24:02;;;;;;;;;;;;;;;;;;5083592;28;44396;-82
2023/05/03 00:26:28;;;;;;;;;;;;;;;;;;5086777;28;42944;-79
2023/05/03 00:28:54;;;;;;;;;;;;;;;;;;5086159;28;42918;-79
2023/05/03 00:31:20;;;;;;;;;;;;;;;;;;5085358;27;43008;-79
2023/05/03 00:33:46;;;;;;;;;;;;;;;;;;5086038;28;42937;-79
2023/05/03 00:36:13;;;;;;;;;;;20.00;58.40;;;;;;5086135;28;43063;-85
2023/05/03 00:38:39;;;;;;;;;;;;;;;;;;5085409;27;43462;-82
2023/05/03 00:41:05;;;;;;;;;;;;;;;;;;5085667;28;43049;-79
2023/05/03 00:43:31;;;;;;;;;;;20.00;59.50;;;;;;5084369;27;42922;-79
2023/05/03 00:45:57;;;;;;;;;;;;;;;;;;5085109;27;42914;-79
2023/05/03 00:48:23;;;;;;;;;;;;;;;;;;5085373;27;43910;-79
2023/05/03 00:50:49;;;;;;;;;;;;;;;;;;5085691;28;42868;-79
2023/05/03 00:53:15;;;;;;;;;;;20.00;59.10;;;;;;5084912;27;43849;-79
2023/05/03 00:55:40;;;;;;;;;;;;;;;;;;5086131;28;43024;-79
2023/05/03 00:58:06;;;;;;;;;;;;;;;;;;5084908;28;43536;-86
2023/05/03 01:00:32;;;;;;;;;;;;;;;;;;5085231;28;42949;-84
2023/05/03 01:02:58;;;;;;;;;;;;;;;;;;5084492;28;43438;-80
2023/05/03 01:05:27;;;;;;;;;;;20.00;59.60;;;;;;5085589;28;42871;-79
2023/05/03 01:08:10;;;;;;;;;;;20.00;59.30;;;;;;5085625;28;43756;-79
2023/05/03 01:10:59;;;;;;;;;;;20.10;59.60;;;;;;5084995;27;42873;-79
2023/05/03 01:13:24;;;;;;;;;;;;;;;;;;5073344;28;43098;-86
2023/05/03 01:15:50;;;;;;;;;;;;;;;;;;5085571;28;43082;-79
2023/05/03 01:18:16;;;;;;;;;;;;;;;;;;5085380;28;43572;-79
2023/05/03 01:20:42;;;;;;;;;;;;;;;;;;5084415;28;42925;-79
2023/05/03 01:23:08;;;;;;;;;;;;;;;;;;5085321;28;43605;-79
2023/05/03 01:25:34;;;;;;;;;;;;;;;;;;5086137;28;42781;-79
2023/05/03 01:28:00;;;;;;;;;;;19.90;59.50;;;;;;5084300;28;43038;-78
2023/05/03 01:30:26;;;;;;;;;;;19.90;59.40;;;;;;5084697;28;43557;-79
2023/05/03 01:33:00;;;;;;;;;;;19.90;59.50;;;;;;5084613;27;42956;-78
2023/05/03 01:35:46;;;;;;;;;;;20.10;59.50;;;;;;5082777;28;43020;-79
2023/05/03 01:38:12;;;;;;;;;;;20.10;59.40;;;;;;5083748;28;43571;-79
2023/05/03 01:40:38;;;;;;;;;;;;;;;;;;5085166;27;42905;-79
2023/05/03 01:43:03;;;;;;;;;;;20.00;59.40;;;;;;5083818;28;44008;-78
2023/05/03 01:45:29;;;;;;;;;;;20.00;59.40;;;;;;5084340;27;42839;-79
2023/05/03 01:47:55;;;;;;;;;;;19.90;58.80;;;;;;5084093;27;43572;-79
2023/05/03 01:50:21;;;;;;;;;;;;;;;;;;5084608;27;42787;-79
2023/05/03 01:52:47;;;;;;;;;;;;;;;;;;5084958;28;43398;-82
2023/05/03 01:55:12;;;;;;;;;;;19.90;58.60;;;;;;5084976;28;42966;-84
2023/05/03 01:57:38;;;;;;;;;;;;;;;;;;5083711;28;42988;-85
2023/05/03 02:00:05;;;;;;;;;;;;;;;;;;5083266;28;43387;-79
2023/05/03 02:02:31;;;;;;;;;;;;;;;;;;5083929;27;43637;-79
2023/05/03 02:04:57;;;;;;;;;;;20.00;59.40;;;;;;5084604;28;43048;-86
2023/05/03 02:07:23;;;;;;;;;;;;;;;;;;5084807;28;42849;-83
2023/05/03 02:09:48;;;;;;;;;;;;;;;;;;5084040;28;42899;-79
2023/05/03 02:12:14;;;;;;;;;;;;;;;;;;5083658;28;43087;-79
2023/05/03 02:14:40;;;;;;;;;;;;;;;;;;5085313;28;43155;-84
2023/05/03 02:17:07;;;;;;;;;;;;;;;;;;5084104;28;42771;-79
2023/05/03 02:19:32;;;;;;;;;;;;;;;;;;5084226;27;42944;-78
2023/05/03 02:21:58;;;;;;;;;;;;;;;;;;5084141;28;43859;-79
2023/05/03 02:24:24;;;;;;;;;;;;;;;;;;5084783;28;42863;-79
2023/05/03 02:26:50;;;;;;;;;;;;;;;;;;5084676;28;44076;-79
2023/05/03 02:29:16;;;;;;;;;;;;;;;;;;5083885;28;43088;-78
2023/05/03 02:31:42;;;;;;;;;;;;;;;;;;5083712;27;44322;-79
2023/05/03 02:34:08;;;;;;;;;;;19.90;59.10;;;;;;5084806;28;42897;-79
2023/05/03 02:36:34;;;;;;;;;;;19.90;59.20;;;;;;5084600;27;43463;-79
2023/05/03 02:38:59;;;;;;;;;;;20.00;59.40;;;;;;5083816;27;42939;-79
2023/05/03 02:41:26;;;;;;;;;;;20.10;59.20;;;;;;5081548;28;44683;-79
2023/05/03 02:43:51;;;;;;;;;;;20.30;59.40;;;;;;5084342;27;42848;-79
2023/05/03 02:46:17;;;;;;;;;;;20.10;58.60;;;;;;5086729;28;42779;-79
2023/05/03 02:48:42;;;;;;;;;;;;;;;;;;5086985;28;42937;-79
2023/05/03 02:51:08;;;;;;;;;;;;;;;;;;5087461;28;43631;-79
2023/05/03 02:53:36;;;;;;;;;;;;;;;;;;5087229;28;59620;-78
2023/05/03 02:56:02;;;;;;;;;;;20.00;59.40;;;;;;5087459;28;43538;-79
2023/05/03 02:58:27;;;;;;;;;;;20.00;59.30;;;;;;5087106;28;43232;-79
2023/05/03 03:00:53;;;;;;;;;;;;;;;;;;5086774;28;42995;-79
2023/05/03 03:03:18;;;;;;;;;;;20.20;58.60;;;;;;5085830;28;43018;-79
2023/05/03 03:05:44;;;;;;;;;;;;;;;;;;5087409;28;43516;-78
2023/05/03 03:08:10;;;;;;;;;;;;;;;;;;5087508;28;42988;-79
2023/05/03 03:10:36;;;;;;;;;;;;;;;;;;5085887;28;43813;-79
2023/05/03 03:13:02;;;;;;;;;;;19.90;58.60;;;;;;5086561;28;42873;-79
2023/05/03 03:15:27;;;;;;;;;;;20.20;59.40;;;;;;5087294;28;43626;-79
2023/05/03 03:17:56;;;;;;;;;;;;;;;;;;5087945;27;42980;-79
2023/05/03 03:20:22;;;;;;;;;;;20.10;59.10;;;;;;5086000;27;44617;-84
2023/05/03 03:22:47;;;;;;;;;;;19.90;59.10;;;;;;5086624;28;43058;-85
2023/05/03 03:25:12;;;;;;;;;;;20.00;58.00;;;;;;5087399;28;42929;-79
2023/05/03 03:27:38;;;;;;;;;;;;;;;;;;5086119;28;43417;-79
2023/05/03 03:30:06;;;;;;;;;;;;;;;;;;5086273;28;43560;-79
2023/05/03 03:32:32;;;;;;;;;;;;;;;;;;5086716;27;43132;-86
2023/05/03 03:34:58;;;;;;;;;;;;;;;;;;5087539;28;42950;-79
2023/05/03 03:37:24;;;;;;;;;;;20.10;58.70;;;;;;5086147;28;42999;-79
2023/05/03 03:39:49;;;;;;;;;;;20.10;59.00;;;;;;5087012;28;43948;-79
2023/05/03 03:42:15;;;;;;;;;;;20.00;59.00;;;;;;5086870;27;42806;-79
2023/05/03 03:44:41;;;;;;;;;;;;;;;;;;5086330;28;43672;-79
2023/05/03 03:47:07;;;;;;;;;;;;;;;;;;5086706;28;42865;-79
2023/05/03 03:49:32;;;;;;;;;;;;;;;;;;5086889;28;42801;-79
2023/05/03 03:51:58;;;;;;;;;;;;;;;;;;5087234;28;43258;-80
2023/05/03 03:54:24;;;;;;;;;;;;;;;;;;5086078;28;43329;-79
2023/05/03 03:56:51;;;;;;;;;;;;;;;;;;5086102;27;42976;-78
2023/05/03 03:59:17;;;;;;;;;;;;;;;;;;5086286;27;42863;-79
2023/05/03 04:01:43;;;;;;;;;;;;;;;;;;5086222;28;43125;-79
2023/05/03 04:04:09;;;;;;;;;;;20.00;58.80;;;;;;5086108;27;43534;-79
2023/05/03 04:06:35;;;;;;;;;;;;;;;;;;5086496;27;42968;-80
2023/05/03 04:09:01;;;;;;;;;;;;;;;;;;5075954;28;42884;-79
2023/05/03 04:11:26;;;;;;;;;;;;;;;;;;5066087;28;42968;-79
2023/05/03 04:13:52;;;;;;;;;;;;;;;;;;5075320;28;43122;-80
2023/05/03 04:16:18;;;;;;;;;;;;;;;;;;5088282;27;43147;-79
2023/05/03 04:18:44;;;;;;;;;;;;;;;;;;5106441;27;42979;-79
2023/05/03 04:21:10;;;;;;;;;;;;;;;;;;5097000;27;42989;-80
2023/05/03 04:23:36;;;;;;;;;;;19.90;58.70;;;;;;5085199;28;43745;-79
2023/05/03 04:26:01;;;;;;;;;;;19.90;58.70;;;;;;5085948;27;42873;-79
2023/05/03 04:28:27;;;;;;;;;;;20.20;58.90;;;;;;5086406;28;43065;-79
2023/05/03 04:30:53;;;;;;;;;;;;;;;;;;5085664;27;42946;-80
2023/05/03 04:33:19;;;;;;;;;;;20.00;58.80;;;;;;5085713;27;43582;-79
2023/05/03 04:35:48;;;;;;;;;;;20.10;58.10;;;;;;5085449;27;42990;-80
2023/05/03 04:38:14;;;;;;;;;;;;;;;;;;5085194;27;42866;-79
2023/05/03 04:40:40;;;;;;;;;;;;;;;;;;5074093;28;42862;-79
2023/05/03 04:43:05;;;;;;;;;;;20.10;58.70;;;;;;5078765;28;42973;-80
2023/05/03 04:45:31;;;;;;;;;;;;;;;;;;5082309;27;42840;-80
2023/05/03 04:47:57;;;;;;;;;;;;;;;;;;5084481;27;43124;-80
2023/05/03 04:50:23;;;;;;;;;;;20.20;58.90;;;;;;5085737;28;43188;-80
2023/05/03 04:52:49;;;;;;;;;;;;;;;;;;5084463;27;43372;-85
2023/05/03 04:55:15;;;;;;;;;;;20.10;57.70;;;;;;5085231;27;42982;-79
2023/05/03 04:57:41;;;;;;;;;;;;;;;;;;5080953;27;42894;-79
2023/05/03 05:00:10;;;;;;;;;;;;;;;;;;5086503;27;42921;-83
2023/05/03 05:02:36;;;;;;;;;;;;;;;;;;5079193;27;43093;-80
2023/05/03 05:05:02;;;;;;;;;;;;;;;;;;5080802;27;43106;-85
2023/05/03 05:07:28;;;;;;;;;;;;;;;;;;5083322;28;43204;-79
2023/05/03 05:09:54;;;;;;;;;;;;;;;;;;5080052;28;43215;-80
2023/05/03 05:12:19;;;;;;;;;;;20.20;58.60;;;;;;5078803;28;43669;-79
2023/05/03 05:14:45;;;;;;;;;;;20.10;57.80;;;;;;5075645;28;42976;-79
2023/05/03 05:17:11;;;;;;;;;;;;;;;;;;5077185;27;43683;-79
2023/05/03 05:19:37;;;;;;;;;;;;;;;;;;5088043;28;42771;-79
2023/05/03 05:22:03;;;;;;;;;;;;;;;;;;5087928;27;43811;-89
2023/05/03 05:24:28;;;;;;;;;;;;;;;;;;5088725;28;43055;-79
2023/05/03 05:26:54;;;;;;;;;;;;;;;;;;5088024;28;43595;-79
2023/05/03 05:29:20;;;;;;;;;;;;;;;;;;5087717;28;43106;-79
2023/05/03 05:31:46;;;;;;;;;;;;;;;;;;5088701;28;44024;-79
2023/05/03 05:34:12;;;;;;;;;;;;;;;;;;5087470;28;42977;-78
2023/05/03 05:36:38;;;;;;;;;;;;;;;;;;5082109;27;43765;-87
2023/05/03 05:39:04;;;;;;;;;;;20.00;58.80;;;;;;5084954;28;42935;-82
2023/05/03 05:41:29;;;;;;;;;;;20.10;58.90;;;;;;5085138;27;43273;-81
2023/05/03 05:43:55;;;;;;;;;;;20.00;58.90;;;;;;5084599;28;42870;-79
2023/05/03 05:46:21;;;;;;;;;;;;;;;;;;5084525;28;43558;-82
2023/05/03 05:48:47;;;;;;;;;;;;;;;;;;5081612;28;42917;-81
2023/05/03 05:51:12;;;;;;;;;;;;;;;;;;5075939;28;43375;-83
2023/05/03 05:53:38;;;;;;;;;;;;;;;;;;5069068;28;43153;-81
2023/05/03 05:56:05;;;;;;;;;;;;;;;;;;5067369;28;42969;-81
2023/05/03 05:58:31;;;;;;;;;;;20.00;59.10;;;;;;5067113;28;42878;-81
2023/05/03 06:00:56;;;;;;;;;;;;;;;;;;5074675;28;43031;-81
2023/05/03 06:03:22;;;;;;;;;;;;;;;;;;5082033;28;42898;-81
2023/05/03 06:05:48;;;;;;;;;;;;;;;;;;5085088;28;42848;-80
2023/05/03 06:08:14;;;;;;;;;;;;;;;;;;5086384;28;42951;-81
2023/05/03 06:10:40;;;;;;;;;;;;;;;;;;5088757;28;43325;-82
2023/05/03 06:13:06;;;;;;;;;;;19.80;59.10;;;;;;5081541;28;42913;-82
2023/05/03 06:15:31;;;;;;;;;;;;;;;;;;5069646;28;42958;-80
2023/05/03 06:17:57;;;;;;;;;;;20.10;59.20;;;;;;5068189;28;42743;-82
2023/05/03 06:20:23;;;;;;;;;;;20.00;58.00;;;;;;5071810;28;42932;-80
2023/05/03 06:22:49;;;;;;;;;;;;;;;;;;5071041;28;43068;-81
2023/05/03 06:25:15;;;;;;;;;;;20.10;59.20;;;;;;5072432;28;42888;-87
2023/05/03 06:27:41;;;;;;;;;;;;;;;;;;5073728;28;42846;-80
2023/05/03 06:30:07;;;;;;;;;;;;;;;;;;5077454;28;42980;-81
2023/05/03 06:32:33;;;;;;;;;;;;;;;;;;5089543;28;42960;-82
2023/05/03 06:34:59;;;;;;;;;;;;;;;;;;5094262;28;43479;-79
2023/05/03 06:37:25;;;;;;;;;;;;;;;;;;5083971;28;42982;-81
2023/05/03 06:39:50;;;;;;;;;;;;;;;;;;5072186;28;43080;-81
2023/05/03 06:42:16;;;;;;;;;;;;;;;;;;5078674;28;43036;-82
2023/05/03 06:44:42;;;;;;;;;;;;;;;;;;5067350;28;43402;-81
2023/05/03 06:47:08;;;;;;;;;;;;;;;;;;5067097;28;42843;-80
2023/05/03 06:49:34;;;;;;;;;;;;;;;;;;5066199;28;44446;-90
2023/05/03 06:52:00;;;;;;;;;;;19.90;59.10;;;;;;5067631;28;43598;-82
2023/05/03 06:54:25;;;;;;;;;;;;;;;;;;5068315;28;43520;-80
2023/05/03 06:56:51;;;;;;;;;;;19.90;59.70;;;;;;5081116;28;42967;-82
2023/05/03 06:59:16;;;;;;;;;;;20.10;58.80;;;;;;5087711;28;43543;-82
2023/05/03 07:01:42;;;;;;;;;;;;;;;;;;5087532;28;43036;-81
2023/05/03 07:04:08;;;;;;;;;;;;;;;;;;5085830;28;43835;-79
2023/05/03 07:06:34;;;;;;;;;;;;;;;;;;5071838;28;42951;-80
2023/05/03 07:09:00;;;;;;;;;;;;;;;;;;5085692;28;44503;-81
2023/05/03 07:11:26;;;;;;;;;;;20.00;60.00;;;;;;5086747;28;43103;-80
2023/05/03 07:13:54;;;;;;;;;;;20.00;58.90;;;;;;5086501;28;43487;-81
2023/05/03 07:16:20;;;;;;;;;;;;;;;;;;5084066;28;43139;-80
2023/05/03 07:18:46;;;;;;;;;;;;;;;;;;5086209;28;42851;-80
2023/05/03 07:21:12;;;;;;;;;;;;;;;;;;5086843;28;42830;-81
2023/05/03 07:23:38;;;;;;;;;;;;;;;;;;5077099;28;43355;-80
2023/05/03 07:26:04;;;;;;;;;;;;;;;;;;5070492;28;42875;-75
2023/05/03 07:28:30;;;;;;;;;;;;;;;;;;5064993;28;42943;-78
2023/05/03 07:30:56;;;;;;;;;;;;;;;;;;5066809;28;42992;-79
2023/05/03 07:33:21;;;;;;;;;;;20.00;59.40;;;;;;5067128;28;42973;-79
2023/05/03 07:35:47;;;;;;;;;;;20.00;59.30;;;;;;5066784;28;42872;-79
2023/05/03 07:38:13;;;;;;;;;;;19.90;59.20;;;;;;5066564;28;42859;-79
2023/05/03 07:40:40;;;;;;;;;;;19.90;59.20;;;;;;5066737;28;42894;-79
2023/05/03 07:43:06;;;;;;;;;;;20.00;59.10;;;;;;5066733;28;43531;-79
2023/05/03 07:45:31;;;;;;;;;;;20.00;59.20;;;;;;5066692;28;43014;-79
2023/05/03 07:47:57;;;;;;;;;;;20.00;58.60;;;;;;5067473;28;43443;-80
2023/05/03 07:50:22;;;;;;;;;;;20.00;58.20;;;;;;5065027;28;43095;-79
2023/05/03 07:52:51;;;;;;;;;;;;;;;;;;5066359;28;42874;-79
2023/05/03 07:55:18;;;;;;;;;;;19.90;58.20;;;;;;5067711;28;42994;-78
2023/05/03 07:57:44;;;;;;;;;;;19.90;58.00;;;;;;5066984;28;44559;-79
2023/05/03 08:00:09;;;;;;;;;;;20.10;57.80;;;;;;5067297;28;42999;-79
2023/05/03 08:02:35;;;;;;;;;;;19.90;57.30;;;;;;5067160;28;43591;-78
2023/05/03 08:05:02;;;;;;;;;;;19.90;57.40;;;;;;5067272;28;43084;-78
2023/05/03 08:07:28;;;;;;;;;;;19.90;57.30;;;;;;5066385;28;42857;-79
2023/05/03 08:09:55;;;;;;;;;;;;;;;;;;5066540;28;42900;-80
2023/05/03 08:12:21;;;;;;;;;;;19.90;57.60;;;;;;5066846;28;42878;-78
2023/05/03 08:14:46;;;;;;;;;;;;;;;;;;5066917;28;42956;-78
2023/05/03 08:17:12;;;;;;;;;;;;;;;;;;5066182;28;43000;-79
2023/05/03 08:19:38;;;;;;;;;;;;;;;;;;5067081;28;43216;-81
2023/05/03 08:22:04;;;;;;;;;;;;;;;;;;5066342;28;43815;-78
2023/05/03 08:24:31;;;;;;;;;;;;;;;;;;5066844;28;42874;-79
2023/05/03 08:26:57;;;;;;;;;;;;;;;;;;5066411;28;43614;-79
2023/05/03 08:29:23;;;;;;;;;;;19.80;55.90;;;;;;5066587;28;43017;-79
2023/05/03 08:31:49;;;;;;;;;;;;;;;;;;5066277;28;42874;-79
2023/05/03 08:34:15;;;;;;;;;;;;;;;;;;5066106;28;42739;-78
2023/05/03 08:36:40;;;;;;;;;;;;;;;;;;5065157;28;43809;-79
2023/05/03 08:39:06;;;;;;;;;;;;;;;;;;5066367;28;43024;-79
2023/05/03 08:41:32;;;;;;;;;;;;;;;;;;5064732;28;45237;-78
2023/05/03 08:43:58;;;;;;;;;;;;;;;;;;5065495;28;42892;-78
2023/05/03 08:46:24;;;;;;;;;;;;;;;;;;5065749;28;43542;-79
2023/05/03 08:48:51;;;;;;;;;;;;;;;;;;5066283;28;42938;-78
2023/05/03 08:51:17;;;;;;;;;;;19.90;55.20;;;;;;5066080;28;42933;-78
2023/05/03 08:53:43;;;;;;;;;;;19.70;54.50;;;;;;5066117;28;42953;-78
2023/05/03 08:56:09;;;;;;;;;;;;;;;;;;5066429;28;43061;-78
2023/05/03 08:58:35;;;;;;;;;;;;;;;;;;5065910;28;43060;-78
2023/05/03 09:01:07;;;;;;;;;;;19.90;54.00;;;;;;5065832;28;42889;-78
2023/05/03 09:03:33;;;;;;;;;;;19.70;53.90;;;;;;5066084;28;42974;-78
2023/05/03 09:06:00;;;;;;;;;;;;;;;;;;5065979;28;42942;-79
2023/05/03 09:08:26;;;;;;;;;;;;;;;;;;5064618;28;43389;-78
2023/05/03 09:10:52;;;;;;;;;;;;;;;;;;5065274;28;42933;-78
2023/05/03 09:13:18;;;;;;;;;;;;;;;;;;5065484;28;43053;-78
2023/05/03 09:15:45;;;;;;;;;;;;;;;;;;5065038;28;43526;-78
2023/05/03 09:18:14;;;;;;;;;;;19.80;51.50;;;;;;5065517;28;42984;-78
2023/05/03 09:20:40;;;;;;;;;;;19.70;51.30;;;;;;5064997;28;43564;-79
2023/05/03 09:23:07;;;;;;;;;;;;;;;;;;5065380;28;42965;-78
2023/05/03 09:25:32;;;;;;;;;;;;;;;;;;5065890;28;43352;-79
2023/05/03 09:27:58;;;;;;;;;;;;;;;;;;5065725;28;42906;-78
2023/05/03 09:30:24;;;;;;;;;;;;;;;;;;5064297;28;45019;-79
2023/05/03 09:32:50;;;;;;;;;;;;;;;;;;5065675;28;42890;-79
2023/05/03 09:35:16;;;;;;;;;;;;;;;;;;5065626;28;42846;-79
2023/05/03 09:37:42;;;;;;;;;;;;;;;;;;5065356;28;42854;-79
2023/05/03 09:40:10;;;;;;;;;;;;;;;;;;5065815;28;42977;-79
2023/05/03 09:42:36;;;;;;;;;;;19.80;50.80;;;;;;5064200;28;42899;-79
2023/05/03 09:45:01;;;;;;;;;;;19.80;50.80;;;;;;5064579;28;43802;-78
2023/05/03 09:47:27;;;;;;;;;;;19.80;50.50;;;;;;5063776;28;43023;-79
2023/05/03 09:49:53;;;;;;;;;;;;;;;;;;5064972;28;43658;-79
2023/05/03 09:52:21;;;;;;;;;;;19.70;49.70;;;;;;5065230;28;42881;-79
2023/05/03 09:54:47;;;;;;;;;;;;;;;;;;5064684;28;42850;-79
2023/05/03 09:57:13;;;;;;;;;;;;;;;;;;5065080;28;43099;-80
2023/05/03 09:59:39;;;;;;;;;;;;;;;;;;5064859;28;42956;-78
2023/05/03 10:02:06;;;;;;;;;;;;;;;;;;5064466;28;42906;-78
2023/05/03 10:04:42;;;;;;;;;;;19.70;50.70;;;;;;5064722;28;43548;-79
2023/05/03 10:07:10;;;;;;;;;;;19.90;50.70;;;;;;5065004;28;42945;-79
2023/05/03 10:09:39;;;;;;;;;;;19.80;50.60;;;;;;5065294;28;44160;-78
2023/05/03 10:12:05;;;;;;;;;;;;;;;;;;5064468;28;42763;-79
2023/05/03 10:14:30;;;;;;;;;;;;;;;;;;5064527;28;42870;-80
2023/05/03 10:16:56;;;;;;;;;;;;;;;;;;5065155;28;42843;-78
2023/05/03 10:19:22;;;;;;;;;;;;;;;;;;5064634;28;42903;-79
2023/05/03 10:21:48;;;;;;;;;;;;;;;;;;5065113;28;42964;-79
2023/05/03 10:24:14;;;;;;;;;;;;;;;;;;5064831;28;43499;-79
2023/05/03 10:26:41;;;;;;;;;;;;;;;;;;5064867;28;42833;-79
2023/05/03 10:29:07;;;;;;;;;;;;;;;;;;5064537;28;43945;-80
2023/05/03 10:31:33;;;;;;;;;;;;;;;;;;5064447;28;42867;-86
2023/05/03 10:33:59;;;;;;;;;;;;;;;;;;5064585;28;43742;-83
2023/05/03 10:36:25;;;;;;;;;;;;;;;;;;5068184;28;43131;-85
2023/05/03 10:38:50;;;;;;;;;;;;;;;;;;5078089;28;43738;-85
2023/05/03 10:41:16;;;;;;;;;;;;;;;;;;5084812;28;43071;-83
2023/05/03 10:43:42;;;;;;;;;;;;;;;;;;5084764;28;42878;-82
2023/05/03 10:46:10;;;;;;;;;;;;;;;;;;5084676;28;42804;-82
2023/05/03 10:48:36;;;;;;;;;;;;;;;;;;5076520;27;43015;-83
2023/05/03 10:51:02;;;;;;;;;;;;;;;;;;5075465;28;43133;-83
2023/05/03 10:53:28;;;;;;;;;;;;;;;;;;5064065;28;43975;-82
2023/05/03 10:55:54;;;;;;;;;;;;;;;;;;5084835;27;42991;-86
2023/05/03 10:58:20;;;;;;;;;;;;;;;;;;5084051;27;43939;-83
2023/05/03 11:00:46;;;;;;;;;;;20.00;51.50;;;;;;5077942;28;43091;-82
2023/05/03 11:03:17;;;;;;;;;;;20.00;51.30;;;;;;5066953;28;43499;-83
2023/05/03 11:05:43;;;;;;;;;;;20.00;51.30;;;;;;5064092;28;43423;-86
2023/05/03 11:08:09;;;;;;;;;;;;;;;;;;5067010;28;42903;-83
2023/05/03 11:10:35;;;;;;;;;;;20.00;50.80;;;;;;5067494;28;43080;-84
2023/05/03 11:13:01;;;;;;;;;;;;;;;;;;5067287;28;43480;-82
2023/05/03 11:15:27;;;;;;;;;;;;;;;;;;5086528;28;43116;-82
2023/05/03 11:17:53;;;;;;;;;;;;;;;;;;5083311;28;43331;-87
2023/05/03 11:20:19;;;;;;;;;;;;;;;;;;5079320;27;44203;-83
2023/05/03 11:22:45;;;;;;;;;;;;;;;;;;5067683;28;42861;-83
2023/05/03 11:25:11;;;;;;;;;;;20.00;50.60;;;;;;5086157;27;42977;-83
2023/05/03 11:27:39;;;;;;;;;;;20.10;51.10;;;;;;5085467;27;44238;-82
2023/05/03 11:30:06;;;;;;;;;;;20.00;52.10;;;;;;5085769;28;43132;-82
2023/05/03 11:32:33;;;;;;;;;;;20.20;52.20;;;;;;5087122;27;42889;-81
2023/05/03 11:35:06;;;;;;;;;;;20.10;51.90;;;;;;5078392;28;42989;-82
2023/05/03 11:37:31;;;;;;;;;;;20.00;50.50;;;;;;5066525;28;43569;-84
2023/05/03 11:39:57;;;;;;;;;;;20.10;51.70;;;;;;5082658;28;42920;-81
2023/05/03 11:42:27;;;;;;;;;;;20.10;51.60;;;;;;5085107;27;43436;-87
2023/05/03 11:44:52;;;;;;;;;;;;;;;;;;5076942;28;43161;-82
2023/05/03 11:47:18;;;;;;;;;;;;;;;;;;5065929;28;43882;-82
2023/05/03 11:49:44;;;;;;;;;;;;;;;;;;5081729;28;43077;-82
2023/05/03 11:52:10;;;;;;;;;;;;;;;;;;5086912;27;44005;-86
2023/05/03 11:54:36;;;;;;;;;;;;;;;;;;5086441;28;43054;-83
2023/05/03 11:57:02;;;;;;;;;;;;;;;;;;5085785;28;42927;-90
2023/05/03 11:59:28;;;;;;;;;;;;;;;;;;5084825;28;42999;-83
2023/05/03 12:01:54;;;;;;;;;;;;;;;;;;5086371;28;43698;-84
2023/05/03 12:04:20;;;;;;;;;;;;;;;;;;5086331;28;42938;-81
2023/05/03 12:06:51;;;;;;;;;;;20.10;52.60;;;;;;5085369;28;42971;-81
2023/05/03 12:09:18;;;;;;;;;;;;;;;;;;5085336;27;43031;-82
2023/05/03 12:11:44;;;;;;;;;;;;;;;;;;5087069;27;43032;-84
2023/05/03 12:14:10;;;;;;;;;;;;;;;;;;5081291;28;43127;-82
2023/05/03 12:16:36;;;;;;;;;;;;;;;;;;5081422;27;43088;-85
2023/05/03 12:19:02;;;;;;;;;;;;;;;;;;5086849;28;42828;-81
2023/05/03 12:21:28;;;;;;;;;;;;;;;;;;5084541;28;42838;-82
2023/05/03 12:23:54;;;;;;;;;;;20.20;54.80;;;;;;5080121;27;42940;-82
2023/05/03 12:26:20;;;;;;;;;;;20.20;54.90;;;;;;5066935;28;43688;-83
2023/05/03 12:28:46;;;;;;;;;;;20.20;55.20;;;;;;5072010;28;42932;-83
2023/05/03 12:31:13;;;;;;;;;;;;;;;;;;5072655;28;42904;-83
2023/05/03 12:33:39;;;;;;;;;;;20.10;54.80;;;;;;5086950;27;42964;-84
2023/05/03 12:36:06;;;;;;;;;;;20.20;55.10;;;;;;5085964;27;42952;-83
2023/05/03 12:38:32;;;;;;;;;;;20.20;54.90;;;;;;5086146;28;43001;-84
2023/05/03 12:40:58;;;;;;;;;;;20.20;55.70;;;;;;5086302;27;43004;-83
2023/05/03 12:43:24;;;;;;;;;;;;;;;;;;5086094;27;43093;-83
2023/05/03 12:45:50;;;;;;;;;;;20.20;56.60;;;;;;5085985;28;43366;-83
2023/05/03 12:48:15;;;;;;;;;;;20.30;56.80;;;;;;5086270;27;42786;-83
2023/05/03 12:50:41;;;;;;;;;;;20.20;56.60;;;;;;5085089;28;43733;-82
2023/05/03 12:53:06;;;;;;;;;;;20.20;57.30;;;;;;5085335;28;42977;-83
2023/05/03 12:55:33;;;;;;;;;;;;;;;;;;5085657;28;43610;-83
2023/05/03 12:57:59;;;;;;;;;;;20.30;57.00;;;;;;5085514;27;43111;-83
2023/05/03 13:00:26;;;;;;;;;;;;;;;;;;5085904;27;42936;-83
2023/05/03 13:02:51;;;;;;;;;;;20.10;56.90;;;;;;5085695;27;43038;-84
2023/05/03 13:05:17;;;;;;;;;;;20.40;57.10;;;;;;5085913;27;44070;-83
2023/05/03 13:07:43;;;;;;;;;;;20.30;57.00;;;;;;5085858;27;42900;-83
2023/05/03 13:10:09;;;;;;;;;;;;;;;;;;5084136;28;45107;-83
2023/05/03 13:12:35;;;;;;;;;;;;;;;;;;5085385;27;42871;-83
2023/05/03 13:15:03;;;;;;;;;;;;;;;;;;5085520;28;43310;-83
2023/05/03 13:17:29;;;;;;;;;;;20.20;56.80;;;;;;5085836;28;42979;-83
2023/05/03 13:19:55;;;;;;;;;;;20.30;56.80;;;;;;5085615;28;44062;-83
2023/05/03 13:22:21;;;;;;;;;;;;;;;;;;5084985;27;43115;-83
2023/05/03 13:24:47;;;;;;;;;;;20.20;56.70;;;;;;5085355;28;44018;-83
2023/05/03 13:27:13;;;;;;;;;;;;;;;;;;5085515;27;42992;-81
2023/05/03 13:29:38;;;;;;;;;;;;;;;;;;5084594;28;42965;-82
2023/05/03 13:32:04;;;;;;;;;;;;;;;;;;5084618;28;43035;-82
2023/05/03 13:34:30;;;;;;;;;;;;;;;;;;5083341;28;43445;-82
2023/05/03 13:36:56;;;;;;;;;;;;;;;;;;5076308;28;43175;-83
2023/05/03 13:39:22;;;;;;;;;;;;;;;;;;5065015;28;42965;-85
2023/05/03 13:41:48;;;;;;;;;;;;;;;;;;5071713;28;42980;-83
2023/05/03 13:44:14;;;;;;;;;;;;;;;;;;5071933;28;43751;-83
2023/05/03 13:46:40;;;;;;;;;;;20.10;56.60;;;;;;5066424;28;42751;-83
2023/05/03 13:49:06;;;;;;;;;;;20.10;56.20;;;;;;5084793;28;43855;-83
2023/05/03 13:51:32;;;;;;;;;;;;;;;;;;5085309;27;43003;-82
2023/05/03 13:53:58;;;;;;;;;;;20.50;56.40;;;;;;5085321;28;43577;-83
2023/05/03 13:56:24;;;;;;;;;;;;;;;;;;5085318;27;42889;-83
2023/05/03 13:58:49;;;;;;;;;;;20.40;56.80;;;;;;5084640;28;42816;-82
2023/05/03 14:01:16;;;;;;;;;;;20.30;56.80;;;;;;5084086;27;43013;-82
2023/05/03 14:03:42;;;;;;;;;;;;;;;;;;5084397;27;42952;-83
2023/05/03 14:06:08;;;;;;;;;;;;;;;;;;5083173;28;42741;-83
2023/05/03 14:08:34;;;;;;;;;;;;;;;;;;5082865;28;44839;-84
2023/05/03 14:11:00;;;;;;;;;;;;;;;;;;5084305;28;43020;-83
2023/05/03 14:13:26;;;;;;;;;;;;;;;;;;5083060;27;43467;-83
2023/05/03 14:15:53;;;;;;;;;;;;;;;;;;5082562;28;42865;-83
2023/05/03 14:18:19;;;;;;;;;;;;;;;;;;5083918;28;42924;-85
2023/05/03 14:20:46;;;;;;;;;;;20.30;56.30;;;;;;5082372;27;44242;-84
2023/05/03 14:23:12;;;;;;;;;;;;;;;;;;5082455;27;43312;-84
2023/05/03 14:25:37;;;;;;;;;;;20.20;57.60;;;;;;5083950;28;42747;-83
2023/05/03 14:28:04;;;;;;;;;;;20.20;57.60;;;;;;5084679;28;43683;-84
2023/05/03 14:30:30;;;;;;;;;;;;;;;;;;5084630;27;43045;-84
2023/05/03 14:32:56;;;;;;;;;;;;;;;;;;5084365;27;43375;-83
2023/05/03 14:35:22;;;;;;;;;;;;;;;;;;5085000;27;42921;-83
2023/05/03 14:37:48;;;;;;;;;;;;;;;;;;5084792;28;43384;-84
2023/05/03 14:40:14;;;;;;;;;;;;;;;;;;5084665;27;42954;-83
2023/05/03 14:42:40;;;;;;;;;;;;;;;;;;5087592;28;43241;-84
2023/05/03 14:45:07;;;;;;;;;;;;;;;;;;5088374;28;42836;-84
2023/05/03 14:47:33;;;;;;;;;;;;;;;;;;5087635;28;43835;-84
2023/05/03 14:49:59;;;;;;;;;;;;;;;;;;5088013;28;42992;-84
2023/05/03 14:52:25;;;;;;;;;;;;;;;;;;5087897;27;43879;-84
2023/05/03 14:54:53;;;;;;;;;;;;;;;;;;5088210;27;42940;-83
2023/05/03 14:57:18;;;;;;;;;;;20.40;56.10;;;;;;5087819;28;43026;-83
2023/05/03 14:59:44;;;;;;;;;;;;;;;;;;5087798;28;43070;-84
2023/05/03 15:02:10;;;;;;;;;;;;;;;;;;5087698;28;42941;-84
2023/05/03 15:04:36;;;;;;;;;;;;;;;;;;5086530;27;43240;-83
2023/05/03 15:07:02;;;;;;;;;;;;;;;;;;5086788;28;43801;-84
2023/05/03 15:09:28;;;;;;;;;;;;;;;;;;5081903;28;42885;-84
2023/05/03 15:11:54;;;;;;;;;;;;;;;;;;5086530;28;42865;-84
2023/05/03 15:14:20;;;;;;;;;;;20.30;56.60;;;;;;5088122;28;42976;-84
2023/05/03 15:16:46;;;;;;;;;;;20.30;56.40;;;;;;5085935;28;44633;-85
2023/05/03 15:19:12;;;;;;;;;;;;;;;;;;5080778;27;42799;-84
2023/05/03 15:21:48;;;;;;;;;;;20.30;56.20;;;;;;5084427;28;42962;-83
2023/05/03 15:24:14;;;;;;;;;;;20.20;56.50;;;;;;5087443;27;42990;-82
2023/05/03 15:26:39;;;;;;;;;;;20.40;56.20;;;;;;5086932;27;43417;-83
2023/05/03 15:29:05;;;;;;;;;;;20.40;56.20;;;;;;5084869;27;43329;-83
2023/05/03 15:31:31;;;;;;;;;;;;;;;;;;5080647;27;42937;-83
2023/05/03 15:33:57;;;;;;;;;;;20.20;55.90;;;;;;5081210;27;42955;-83
2023/05/03 15:36:23;;;;;;;;;;;20.20;56.10;;;;;;5086958;28;43598;-83
2023/05/03 15:38:49;;;;;;;;;;;;;;;;;;5086326;27;43003;-83
2023/05/03 15:41:15;;;;;;;;;;;;;;;;;;5086693;28;42943;-82